Time;durP1;ratioP1;P1;durP2;ratioP2;P2;SDS_P1;SDS_P2;PMS_P1;PMS_P2;Temp;Humidity;BMP_temperature;BMP_pressure;BME280_temperature;BME280_humidity;BME280_pressure;Samples;Min_cycle;Max_cycle;Signal;HPM_P1;HPM_P2
2020/12/13 00:00:49;;;;;;;31.23;12.48;;;;;;;4.38;87.54;99983.41;5085997;28;20094;-72
2020/12/13 00:03:18;;;;;;;28.75;12.30;;;;;;;4.40;87.50;99988.56;5085624;28;20124;-73
2020/12/13 00:05:43;;;;;;;32.95;12.85;;;;;;;4.41;87.57;99980.84;5085844;28;20035;-73
2020/12/13 00:08:09;;;;;;;32.28;14.30;;;;;;;4.43;87.55;99979.16;5085828;28;20024;-72
2020/12/13 00:10:34;;;;;;;30.00;12.13;;;;;;;4.44;87.66;99973.16;5085762;28;20025;-72
2020/12/13 00:13:00;;;;;;;34.35;13.13;;;;;;;4.46;87.38;99976.63;5085272;28;20056;-72
2020/12/13 00:15:25;;;;;;;29.83;13.48;;;;;;;4.47;87.46;99975.78;5085825;28;20021;-73
2020/12/13 00:17:51;;;;;;;30.60;13.00;;;;;;;4.46;87.48;99981.78;5085470;28;20059;-73
2020/12/13 00:20:18;;;;;;;22.35;10.50;;;;;;;4.44;87.48;99980.88;5085641;28;20023;-73
2020/12/13 00:22:44;;;;;;;32.03;13.20;;;;;;;4.45;87.54;99974.03;5085509;28;20039;-72
2020/12/13 00:25:10;;;;;;;22.92;11.02;;;;;;;4.45;87.68;99971.47;5085504;28;20020;-72
2020/12/13 00:27:36;;;;;;;27.10;11.88;;;;;;;4.46;87.67;99981.78;5084813;28;20029;-71
2020/12/13 00:30:05;;;;;;;26.00;11.40;;;;;;;4.46;87.60;99979.19;5085773;28;20141;-72
2020/12/13 00:32:31;;;;;;;21.80;10.40;;;;;;;4.46;87.70;99979.19;5085788;28;20029;-70
2020/12/13 00:34:58;;;;;;;22.27;10.15;;;;;;;4.47;87.74;99985.22;5085556;28;20102;-71
2020/12/13 00:37:26;;;;;;;22.65;10.07;;;;;;;4.46;87.57;99984.34;5085526;28;20031;-70
2020/12/13 00:39:52;;;;;;;22.23;10.38;;;;;;;4.47;87.63;99980.91;5085808;28;20021;-71
2020/12/13 00:42:20;;;;;;;22.98;10.05;;;;;;;4.47;87.64;99987.78;5085264;28;20046;-71
2020/12/13 00:44:46;;;;;;;23.42;11.10;;;;;;;4.51;87.63;99983.50;5085210;28;20087;-71
2020/12/13 00:47:11;;;;;;;20.17;9.30;;;;;;;4.49;87.79;99985.22;5085496;28;20032;-71
2020/12/13 00:49:36;;;;;;;25.85;11.45;;;;;;;4.53;87.69;99995.56;5085435;28;20025;-70
2020/12/13 00:52:04;;;;;;;21.95;10.57;;;;;;;4.53;87.69;99995.56;5084966;28;20025;-70
2020/12/13 00:54:29;;;;;;;18.52;9.85;;;;;;;4.55;87.65;100000.72;5084802;28;20095;-70
2020/12/13 00:56:55;;;;;;;18.83;9.75;;;;;;;4.55;87.57;99996.41;5084770;28;20024;-70
2020/12/13 00:59:20;;;;;;;21.80;10.00;;;;;;;4.56;87.57;99999.84;5084604;28;20111;-70
2020/12/13 01:01:46;;;;;;;24.67;10.75;;;;;;;4.53;87.76;99998.13;5084569;28;20059;-69
2020/12/13 01:04:11;;;;;;;23.38;10.05;;;;;;;4.54;87.61;100004.97;5084665;28;20032;-70
2020/12/13 01:06:36;;;;;;;19.85;10.07;;;;;;;4.52;87.69;99996.38;5084555;28;20028;-70
2020/12/13 01:09:03;;;;;;;17.02;8.23;;;;;;;4.52;87.67;99993.81;5084535;28;20027;-69
2020/12/13 01:11:30;;;;;;;22.85;9.60;;;;;;;4.57;87.78;100002.44;5084640;28;20044;-69
2020/12/13 01:13:56;;;;;;;20.90;10.40;;;;;;;4.58;87.62;100011.84;5083882;28;20031;-70
2020/12/13 01:16:25;;;;;;;19.85;10.45;;;;;;;4.61;87.76;100005.03;5084327;28;20044;-69
2020/12/13 01:18:52;;;;;;;23.95;10.18;;;;;;;4.59;87.76;100013.59;5084312;28;20035;-70
2020/12/13 01:21:23;;;;;;;21.77;9.45;;;;;;;4.64;87.60;100008.50;5084174;28;20035;-69
2020/12/13 01:23:49;;;;;;;23.80;11.27;;;;;;;4.63;87.65;100014.50;5084155;28;20024;-70
2020/12/13 01:26:16;;;;;;;22.17;11.13;;;;;;;4.66;87.72;100014.53;5084251;28;20028;-71
2020/12/13 01:28:42;;;;;;;17.00;9.43;;;;;;;4.70;87.64;100008.56;5083803;28;20108;-70
2020/12/13 01:31:08;;;;;;;21.33;10.23;;;;;;;4.72;87.67;100011.16;5084191;28;20020;-70
2020/12/13 01:33:34;;;;;;;18.67;9.25;;;;;;;4.74;87.61;100013.72;5084053;28;20519;-71
2020/12/13 01:36:00;;;;;;;21.60;9.85;;;;;;;4.74;87.48;100017.19;5084056;28;20029;-70
2020/12/13 01:38:25;;;;;;;19.42;9.52;;;;;;;4.73;87.51;100012.84;5082677;28;20508;-70
2020/12/13 01:41:07;;;;;;;20.48;10.35;;;;;;;4.71;87.35;100014.56;5083507;28;20158;-70
2020/12/13 01:43:32;;;;;;;17.37;9.33;;;;;;;4.74;87.16;100018.88;5082785;28;20020;-70
2020/12/13 01:45:58;;;;;;;18.35;9.30;;;;;;;4.69;87.36;100017.13;5082966;28;20035;-71
2020/12/13 01:48:24;;;;;;;17.75;9.35;;;;;;;4.71;87.43;100019.72;5083192;28;20028;-71
2020/12/13 01:53:23;;;;;;;20.55;9.07;;;;;;;4.68;87.45;100024.84;5083160;28;20033;-71
2020/12/13 01:55:50;;;;;;;17.88;8.85;;;;;;;4.64;87.51;100016.22;5083917;28;20528;-70
2020/12/13 01:58:42;;;;;;;18.42;9.38;;;;;;;4.64;87.61;100023.94;5083439;28;20035;-72
2020/12/13 02:01:08;;;;;;;19.27;9.40;;;;;;;4.62;87.37;100017.06;5081014;28;20206;-70
2020/12/13 02:03:55;;;;;;;18.92;9.60;;;;;;;4.65;87.64;100029.94;5083302;28;20071;-72
2020/12/13 02:06:25;;;;;;;22.63;9.27;;;;;;;4.65;87.54;100025.66;5083529;28;20123;-72
2020/12/13 02:08:51;;;;;;;18.60;9.50;;;;;;;4.66;87.49;100019.69;5083683;28;20029;-72
2020/12/13 02:11:20;;;;;;;15.93;8.50;;;;;;;4.67;87.77;100029.09;5083508;28;20023;-71
2020/12/13 02:13:48;;;;;;;21.00;10.50;;;;;;;4.67;87.43;100034.25;5083176;28;20111;-70
2020/12/13 02:16:14;;;;;;;21.05;10.63;;;;;;;4.67;87.40;100026.53;5083445;28;20020;-70
2020/12/13 02:18:42;;;;;;;18.35;9.60;;;;;;;4.65;87.49;100020.50;5083483;28;20035;-71
2020/12/13 02:21:10;;;;;;;18.42;9.40;;;;;;;4.66;87.46;100017.09;5083347;28;20130;-71
2020/12/13 02:23:39;;;;;;;19.20;9.32;;;;;;;4.65;87.66;100020.50;5083389;28;20016;-71
2020/12/13 02:26:23;;;;;;;18.60;8.63;;;;;;;4.63;87.48;100023.91;5081916;28;20044;-70
2020/12/13 02:28:48;;;;;;;15.15;7.38;;;;;;;4.62;87.73;100020.47;5083249;28;20055;-70
2020/12/13 02:31:13;;;;;;;19.75;9.93;;;;;;;4.58;87.38;100023.88;5082953;28;20083;-70
2020/12/13 02:33:41;;;;;;;18.20;8.68;;;;;;;4.62;87.46;100025.63;5083156;28;20051;-70
2020/12/13 02:36:07;;;;;;;18.27;8.68;;;;;;;4.59;87.61;100023.03;5083077;28;20123;-71
2020/12/13 02:38:32;;;;;;;20.25;9.25;;;;;;;4.57;87.62;100024.69;5083339;28;20024;-71
2020/12/13 02:40:59;;;;;;;19.48;8.90;;;;;;;4.61;87.55;100028.19;5083270;28;20440;-70
2020/12/13 02:43:25;;;;;;;18.05;9.13;;;;;;;4.62;87.53;100023.03;5082808;28;20513;-71
2020/12/13 02:45:50;;;;;;;18.33;9.68;;;;;;;4.58;87.66;100018.72;5083254;28;20039;-71
2020/12/13 02:48:15;;;;;;;19.85;9.82;;;;;;;4.63;87.65;100032.50;5083450;28;20035;-70
2020/12/13 02:50:41;;;;;;;16.50;8.52;;;;;;;4.63;87.62;100026.50;5088031;28;20048;-70
2020/12/13 02:53:06;;;;;;;25.60;10.55;;;;;;;4.63;87.58;100032.50;5088275;28;20035;-71
2020/12/13 02:55:32;;;;;;;17.58;8.68;;;;;;;4.64;87.78;100028.19;5089688;28;20024;-69
2020/12/13 02:57:57;;;;;;;20.58;9.80;;;;;;;4.63;87.59;100021.34;5089522;28;20463;-69
2020/12/13 03:00:22;;;;;;;17.65;8.57;;;;;;;4.65;87.48;100023.06;5089763;28;20016;-70
2020/12/13 03:02:48;;;;;;;18.73;9.40;;;;;;;4.64;87.62;100031.66;5089214;28;20040;-70
2020/12/13 03:05:13;;;;;;;12.60;5.93;;;;;;;4.65;87.53;100028.22;5088248;28;20044;-70
2020/12/13 03:07:38;;;;;;;18.58;9.00;;;;;;;4.65;87.39;100030.78;5089529;28;20028;-70
2020/12/13 03:10:04;;;;;;;18.65;9.20;;;;;;;4.65;87.71;100028.22;5089300;28;20028;-70
2020/12/13 03:12:29;;;;;;;17.95;9.02;;;;;;;4.65;87.68;100028.22;5089354;28;20020;-70
2020/12/13 03:14:55;;;;;;;18.27;8.45;;;;;;;4.64;87.52;100023.94;5089314;28;20048;-70
2020/12/13 03:17:21;;;;;;;19.63;8.93;;;;;;;4.66;87.51;100027.41;5089389;28;20079;-70
2020/12/13 03:19:47;;;;;;;15.95;7.43;;;;;;;4.67;87.38;100029.09;5089590;28;20043;-70
2020/12/13 03:22:12;;;;;;;13.98;8.00;;;;;;;4.65;87.54;100027.38;5089509;28;20066;-70
2020/12/13 03:24:37;;;;;;;16.55;7.68;;;;;;;4.68;87.54;100020.53;5087902;28;20043;-70
2020/12/13 03:27:03;;;;;;;14.00;7.43;;;;;;;4.67;87.55;100023.97;5089638;28;20032;-70
2020/12/13 03:29:29;;;;;;;16.58;8.02;;;;;;;4.67;87.64;100023.09;5089326;28;20028;-70
2020/12/13 03:31:54;;;;;;;16.52;9.73;;;;;;;4.68;87.76;100029.97;5089398;28;20040;-70
2020/12/13 03:34:20;;;;;;;18.95;7.55;;;;;;;4.70;87.43;100029.13;5089368;28;20021;-70
2020/12/13 03:36:46;;;;;;;17.75;8.80;;;;;;;4.68;87.53;100033.38;5089606;28;20013;-70
2020/12/13 03:39:11;;;;;;;17.35;8.65;;;;;;;4.66;87.65;100027.41;5089292;28;20028;-70
2020/12/13 03:41:36;;;;;;;17.00;8.13;;;;;;;4.70;87.75;100031.72;5089603;28;20027;-70
2020/12/13 03:44:02;;;;;;;19.25;9.13;;;;;;;4.72;87.73;100029.16;5087576;28;20038;-69
2020/12/13 03:46:27;;;;;;;17.98;8.38;;;;;;;4.73;87.67;100033.44;5089554;28;20020;-69
2020/12/13 03:48:53;;;;;;;18.33;8.88;;;;;;;4.74;87.70;100034.31;5089409;28;20020;-69
2020/12/13 03:51:18;;;;;;;15.65;8.30;;;;;;;4.76;87.61;100042.91;5089280;28;20022;-69
2020/12/13 03:53:44;;;;;;;12.93;6.93;;;;;;;4.74;87.41;100027.47;5089241;28;20024;-70
2020/12/13 03:56:09;;;;;;;15.05;8.07;;;;;;;4.76;87.47;100033.47;5089320;28;20020;-71
2020/12/13 03:58:34;;;;;;;16.20;7.25;;;;;;;4.78;87.31;100041.19;5089002;28;20035;-72
2020/12/13 04:01:00;;;;;;;14.48;7.60;;;;;;;4.77;87.57;100034.34;5087495;28;20377;-71
2020/12/13 04:03:25;;;;;;;15.93;8.18;;;;;;;4.79;87.61;100046.34;5085418;28;20073;-71
2020/12/13 04:05:51;;;;;;;17.77;7.25;;;;;;;4.81;87.77;100041.22;5086114;28;20044;-70
2020/12/13 04:08:16;;;;;;;14.38;7.68;;;;;;;4.83;87.62;100048.13;5085864;28;20039;-70
2020/12/13 04:10:41;;;;;;;18.38;7.80;;;;;;;4.84;87.42;100043.81;5085999;28;20048;-70
2020/12/13 04:13:07;;;;;;;16.70;8.52;;;;;;;4.87;87.59;100043.88;5085579;28;20035;-69
2020/12/13 04:15:32;;;;;;;21.75;8.25;;;;;;;4.88;87.51;100045.59;5085862;28;20096;-69
2020/12/13 04:17:57;;;;;;;15.15;7.95;;;;;;;4.90;87.48;100045.59;5085795;28;20024;-71
2020/12/13 04:20:23;;;;;;;16.27;7.93;;;;;;;4.87;87.57;100043.88;5085678;28;20051;-70
2020/12/13 04:22:48;;;;;;;19.17;8.68;;;;;;;4.89;87.55;100049.03;5085512;28;20024;-70
2020/12/13 04:25:14;;;;;;;16.27;7.38;;;;;;;4.91;87.56;100048.19;5085494;28;20032;-68
2020/12/13 04:27:39;;;;;;;16.25;8.15;;;;;;;4.92;87.27;100043.91;5085256;28;20025;-69
2020/12/13 04:30:05;;;;;;;17.90;8.30;;;;;;;4.92;87.62;100043.91;5085342;28;20085;-69
2020/12/13 04:32:30;;;;;;;17.58;8.70;;;;;;;4.92;87.47;100043.91;5085658;28;20024;-68
2020/12/13 04:34:56;;;;;;;14.82;6.70;;;;;;;4.93;87.26;100045.63;5085517;28;20324;-69
2020/12/13 04:37:23;;;;;;;13.23;6.55;;;;;;;4.90;87.41;100045.59;5085520;28;20020;-69
2020/12/13 04:39:50;;;;;;;15.25;7.75;;;;;;;4.88;87.38;100040.44;5085318;28;20025;-69
2020/12/13 04:42:16;;;;;;;12.60;6.35;;;;;;;4.86;87.45;100042.13;5085159;28;20348;-69
2020/12/13 04:44:41;;;;;;;12.48;6.55;;;;;;;4.85;87.45;100043.00;5084986;28;20021;-68
2020/12/13 04:47:07;;;;;;;14.93;7.30;;;;;;;4.83;87.20;100045.53;5085172;28;20491;-69
2020/12/13 04:49:34;;;;;;;14.13;6.88;;;;;;;4.84;87.37;100042.13;5085248;28;20077;-69
2020/12/13 04:52:02;;;;;;;14.38;6.97;;;;;;;4.84;87.20;100039.53;5085183;28;20029;-69
2020/12/13 04:54:28;;;;;;;11.60;6.70;;;;;;;4.81;87.31;100038.66;5084848;28;20126;-69
2020/12/13 04:56:56;;;;;;;14.25;6.65;;;;;;;4.75;87.30;100036.00;5085065;28;20058;-69
2020/12/13 04:59:22;;;;;;;11.20;6.30;;;;;;;4.77;87.30;100044.63;5084609;28;20040;-68
2020/12/13 05:01:48;;;;;;;15.18;6.75;;;;;;;4.75;87.36;100041.16;5083442;28;20049;-69
2020/12/13 05:04:15;;;;;;;11.45;6.97;;;;;;;4.76;87.51;100042.91;5085047;28;20024;-69
2020/12/13 05:06:42;;;;;;;12.70;6.82;;;;;;;4.74;87.27;100037.75;5083457;28;20020;-69
2020/12/13 05:09:09;;;;;;;12.80;6.35;;;;;;;4.76;87.36;100043.75;5084801;28;20020;-70
2020/12/13 05:11:37;;;;;;;13.77;5.90;;;;;;;4.75;87.57;100048.88;5084586;28;20032;-70
2020/12/13 05:14:03;;;;;;;11.30;6.28;;;;;;;4.76;87.36;100053.19;5082702;28;20357;-69
2020/12/13 05:16:28;;;;;;;15.48;6.57;;;;;;;4.76;87.35;100051.47;5084611;28;20051;-70
2020/12/13 05:18:54;;;;;;;10.77;5.72;;;;;;;4.76;87.48;100051.47;5084587;28;20511;-69
2020/12/13 05:21:24;;;;;;;9.43;4.80;;;;;;;4.76;87.38;100051.47;5084675;28;20012;-69
2020/12/13 05:23:50;;;;;;;7.88;3.90;;;;;;;4.74;87.15;100049.75;5084335;28;20024;-69
2020/12/13 05:26:16;;;;;;;11.90;6.13;;;;;;;4.73;87.03;100042.88;5083167;28;20033;-70
2020/12/13 05:28:53;;;;;;;12.68;6.10;;;;;;;4.66;87.38;100047.09;5084367;28;20087;-70
2020/12/13 05:31:21;;;;;;;12.18;6.13;;;;;;;4.67;87.46;100047.09;5084615;28;20055;-70
2020/12/13 05:34:08;;;;;;;12.98;6.45;;;;;;;4.69;87.49;100063.44;5084345;28;20108;-70
2020/12/13 05:36:38;;;;;;;5.13;2.85;;;;;;;4.74;87.21;100050.59;5084184;28;20123;-70
2020/12/13 05:39:04;;;;;;;9.07;5.28;;;;;;;4.69;87.08;100058.28;5084320;28;20024;-71
2020/12/13 05:41:36;;;;;;;8.13;4.50;;;;;;;4.65;87.51;100058.22;5083665;28;20020;-72
2020/12/13 05:51:58;;;;;;;7.95;4.22;;;;;;;4.63;87.58;100068.50;5084470;28;20047;-72
2020/12/13 05:56:58;;;;;;;6.50;3.40;;;;;;;4.64;87.43;100077.06;5083962;28;20020;-74
2020/12/13 05:59:24;;;;;;;8.77;3.47;;;;;;;4.65;87.41;100077.06;5083891;28;20020;-74
2020/12/13 06:01:53;;;;;;;6.10;3.00;;;;;;;4.64;87.41;100074.50;5083709;28;20048;-74
2020/12/13 06:04:24;;;;;;;7.25;3.60;;;;;;;4.66;87.24;100072.81;5083555;28;20496;-75
2020/12/13 06:06:55;;;;;;;6.75;2.95;;;;;;;4.70;87.06;100084.84;5083968;28;20252;-74
2020/12/13 06:09:40;;;;;;;7.78;3.40;;;;;;;4.59;87.34;100077.88;5084534;28;20024;-74
2020/12/13 06:12:08;;;;;;;9.02;3.67;;;;;;;4.62;87.38;100083.91;5087829;28;20043;-74
2020/12/13 06:14:39;;;;;;;5.75;2.70;;;;;;;4.64;87.36;100082.19;5082243;28;20016;-74
2020/12/13 06:17:06;;;;;;;4.95;3.22;;;;;;;4.63;87.46;100077.91;5083764;28;20028;-74
2020/12/13 06:19:33;;;;;;;6.35;2.55;;;;;;;4.63;87.05;100077.91;5083478;28;20444;-73
2020/12/13 06:22:03;;;;;;;5.90;2.83;;;;;;;4.58;87.19;100077.88;5083515;28;20020;-74
2020/12/13 06:24:29;;;;;;;5.57;2.80;;;;;;;4.56;86.74;100070.13;5082628;28;20035;-73
2020/12/13 06:26:55;;;;;;;4.60;2.30;;;;;;;4.53;86.81;100076.94;5082086;28;20028;-72
2020/12/13 06:29:22;;;;;;;4.85;2.67;;;;;;;4.53;87.04;100079.53;5083331;28;20021;-72
2020/12/13 06:31:51;;;;;;;5.15;2.47;;;;;;;4.46;87.11;100082.03;5083349;28;20030;-71
2020/12/13 06:34:17;;;;;;;3.95;1.90;;;;;;;4.54;87.14;100087.25;5083102;28;20025;-70
2020/12/13 06:36:43;;;;;;;5.43;2.58;;;;;;;4.50;87.09;100079.47;5081888;28;20024;-69
2020/12/13 06:39:14;;;;;;;8.88;3.13;;;;;;;4.46;87.03;100089.72;5082134;28;20021;-69
2020/12/13 06:41:51;;;;;;;7.55;2.78;;;;;;;4.49;86.94;100086.31;5083190;28;20032;-68
2020/12/13 06:44:17;;;;;;;4.32;2.25;;;;;;;4.41;87.16;100082.81;5082919;28;20052;-68
2020/12/13 06:46:45;;;;;;;7.10;3.00;;;;;;;4.49;86.88;100093.19;5083505;28;20107;-67
2020/12/13 06:49:13;;;;;;;6.03;3.00;;;;;;;4.37;87.44;100083.63;5083085;28;20024;-67
2020/12/13 06:51:41;;;;;;;5.78;3.05;;;;;;;4.41;87.74;100093.13;5083092;28;20041;-67
2020/12/13 06:54:08;;;;;;;10.43;3.55;;;;;;;4.47;87.49;100096.59;5082896;28;20017;-68
2020/12/13 06:56:34;;;;;;;5.97;2.95;;;;;;;4.52;87.46;100099.22;5081762;28;20035;-68
2020/12/13 06:59:02;;;;;;;7.55;3.20;;;;;;;4.53;87.59;100097.50;5082910;28;20051;-68
2020/12/13 07:01:34;;;;;;;4.38;2.35;;;;;;;4.57;87.16;100104.41;5082854;28;20342;-68
2020/12/13 07:04:24;;;;;;;5.53;2.33;;;;;;;4.61;86.78;100103.63;5082797;28;20485;-68
2020/12/13 07:07:11;;;;;;;6.78;2.78;;;;;;;4.52;86.81;100106.94;5083124;28;20033;-68
2020/12/13 07:09:37;;;;;;;5.72;2.53;;;;;;;4.49;86.85;100106.06;5082983;28;20028;-67
2020/12/13 07:12:03;;;;;;;5.95;3.13;;;;;;;4.42;86.94;100113.69;5082847;28;20030;-67
2020/12/13 07:14:32;;;;;;;5.47;2.78;;;;;;;4.45;86.94;100113.72;5082850;28;20494;-68
2020/12/13 07:17:09;;;;;;;3.90;2.10;;;;;;;4.49;86.94;100117.19;5083427;28;20021;-67
2020/12/13 07:19:37;;;;;;;6.72;2.72;;;;;;;4.39;86.99;100105.94;5082989;28;20029;-68
2020/12/13 07:22:09;;;;;;;4.05;2.47;;;;;;;4.42;86.71;100107.69;5083034;28;20012;-68
2020/12/13 07:24:35;;;;;;;6.93;3.85;;;;;;;4.45;86.71;100112.84;5082831;28;20085;-67
2020/12/13 07:27:02;;;;;;;8.13;3.20;;;;;;;4.37;87.19;100112.75;5083130;28;20033;-67
2020/12/13 07:29:28;;;;;;;6.28;3.13;;;;;;;4.37;87.18;100117.91;5082609;28;20028;-68
2020/12/13 07:31:54;;;;;;;7.38;3.97;;;;;;;4.32;87.50;100111.84;5082778;28;20677;-67
2020/12/13 07:34:20;;;;;;;6.82;3.90;;;;;;;4.40;87.50;100128.22;5082717;28;20032;-70
2020/12/13 07:36:45;;;;;;;10.48;4.20;;;;;;;4.44;87.24;100114.56;5085208;28;20492;-68
2020/12/13 07:39:13;;;;;;;8.30;4.00;;;;;;;4.45;87.28;100125.72;5086696;28;20024;-69
2020/12/13 07:41:40;;;;;;;7.80;3.10;;;;;;;4.50;86.77;100125.75;5086631;28;20092;-71
2020/12/13 07:44:11;;;;;;;8.30;3.08;;;;;;;4.43;87.12;100125.69;5086294;28;20020;-70
2020/12/13 07:46:38;;;;;;;5.32;2.25;;;;;;;4.43;87.16;100133.41;5086892;28;20042;-71
2020/12/13 07:49:12;;;;;;;7.70;4.32;;;;;;;4.41;87.23;100135.09;5085215;28;20020;-72
2020/12/13 07:51:40;;;;;;;6.82;3.60;;;;;;;4.43;87.21;100133.41;5086803;28;20055;-71
2020/12/13 07:54:13;;;;;;;7.47;3.47;;;;;;;4.43;87.44;100128.25;5086510;28;20012;-71
2020/12/13 07:56:39;;;;;;;6.80;3.65;;;;;;;4.44;87.32;100135.13;5086699;28;20031;-73
2020/12/13 07:59:15;;;;;;;8.25;4.18;;;;;;;4.47;87.31;100135.16;5086245;28;20099;-73
2020/12/13 08:01:42;;;;;;;4.20;2.65;;;;;;;4.54;86.67;100136.09;5086436;28;20020;-71
2020/12/13 08:04:08;;;;;;;16.80;4.38;;;;;;;4.47;86.93;100134.31;5086077;28;20025;-72
2020/12/13 08:06:34;;;;;;;7.38;3.75;;;;;;;4.48;86.91;100143.75;5086463;28;20052;-73
2020/12/13 08:09:12;;;;;;;6.65;3.58;;;;;;;4.47;86.75;100129.16;5086569;28;20021;-73
2020/12/13 08:11:38;;;;;;;6.95;2.40;;;;;;;4.44;86.94;100127.41;5085275;28;20095;-74
2020/12/13 08:14:06;;;;;;;5.72;2.95;;;;;;;4.40;86.99;100130.78;5086051;28;20116;-73
2020/12/13 08:16:33;;;;;;;6.53;2.30;;;;;;;4.47;87.02;100135.16;5086614;28;20031;-74
2020/12/13 08:19:10;;;;;;;8.60;3.83;;;;;;;4.53;86.44;100130.94;5086377;28;20082;-74
2020/12/13 08:21:45;;;;;;;13.27;4.78;;;;;;;4.45;86.92;100136.00;5086334;28;20051;-74
2020/12/13 08:24:13;;;;;;;7.88;4.35;;;;;;;4.46;86.96;100143.72;5085749;28;20033;-74
2020/12/13 08:26:39;;;;;;;9.48;4.88;;;;;;;4.50;86.72;100133.47;5086050;28;20020;-74
2020/12/13 08:29:07;;;;;;;7.07;3.40;;;;;;;4.51;86.68;100145.47;5085680;28;20024;-74
2020/12/13 08:31:33;;;;;;;5.15;2.63;;;;;;;4.58;86.36;100137.84;5086004;28;20029;-75
2020/12/13 08:34:00;;;;;;;8.85;4.10;;;;;;;4.43;87.06;100147.94;5084321;28;20430;-73
2020/12/13 08:36:26;;;;;;;8.35;4.57;;;;;;;4.34;86.64;100123.84;5085923;28;20012;-75
2020/12/13 08:39:10;;;;;;;10.30;4.90;;;;;;;4.45;86.85;100141.13;5084250;28;20027;-74
2020/12/13 08:41:43;;;;;;;8.65;4.93;;;;;;;4.44;86.97;100147.97;5085641;28;20051;-74
2020/12/13 08:44:24;;;;;;;9.65;4.95;;;;;;;4.46;87.18;100146.28;5085386;28;20024;-73
2020/12/13 08:46:50;;;;;;;10.60;4.65;;;;;;;4.47;87.27;100150.56;5084189;28;20451;-72
2020/12/13 08:49:24;;;;;;;13.30;5.13;;;;;;;4.52;86.90;100150.63;5084951;28;20027;-73
2020/12/13 08:51:49;;;;;;;10.23;5.07;;;;;;;4.49;87.26;100152.31;5085559;28;20080;-72
2020/12/13 08:54:14;;;;;;;8.95;4.10;;;;;;;4.55;86.92;100154.97;5085335;28;20028;-73
2020/12/13 08:56:42;;;;;;;7.38;3.88;;;;;;;4.58;86.63;100153.28;5085591;28;20098;-73
2020/12/13 08:59:08;;;;;;;12.68;5.40;;;;;;;4.52;86.74;100160.91;5085047;28;20033;-73
2020/12/13 09:01:39;;;;;;;12.68;5.68;;;;;;;4.51;86.84;100161.78;5085068;28;20080;-71
2020/12/13 09:04:21;;;;;;;7.90;4.15;;;;;;;4.55;86.82;100162.69;5085161;28;20045;-72
2020/12/13 09:06:55;;;;;;;;;;;;;;;4.53;86.66;100167.81;5085706;28;20058;-72
2020/12/13 09:09:21;;;;;;;12.40;5.22;;;;;;;4.42;87.00;100162.53;5085348;28;19909;-73
2020/12/13 09:11:47;;;;;;;12.90;4.90;;;;;;;4.53;86.80;100165.25;5084997;28;20035;-71
2020/12/13 09:14:24;;;;;;;4.75;3.00;;;;;;;4.58;86.60;100167.84;5084725;28;20017;-72
2020/12/13 09:16:52;;;;;;;12.02;4.78;;;;;;;4.48;86.77;100161.72;5084954;28;20358;-72
2020/12/13 09:19:18;;;;;;;13.20;5.57;;;;;;;4.46;87.07;100171.13;5083495;28;20028;-72
2020/12/13 09:21:49;;;;;;;12.15;5.85;;;;;;;4.46;87.20;100169.44;5084915;28;20021;-73
2020/12/13 09:24:16;;;;;;;11.23;4.90;;;;;;;4.58;86.65;100168.69;5084260;28;20028;-73
2020/12/13 09:27:07;;;;;;;9.95;5.55;;;;;;;4.52;87.28;100176.34;5083289;28;20031;-72
2020/12/13 09:29:35;;;;;;;17.57;6.03;;;;;;;4.54;87.28;100178.94;5084570;28;20280;-72
2020/12/13 09:32:03;;;;;;;9.13;4.03;;;;;;;4.78;85.66;100172.34;5083287;28;20081;-72
2020/12/13 09:34:28;;;;;;;12.65;5.50;;;;;;;4.55;86.41;100184.09;5082993;28;20016;-71
2020/12/13 09:36:53;;;;;;;12.52;5.20;;;;;;;4.46;86.73;100171.13;5084541;28;20050;-71
2020/12/13 09:39:19;;;;;;;11.05;5.20;;;;;;;4.57;86.61;100176.41;5084234;28;20111;-67
2020/12/13 09:41:44;;;;;;;9.95;4.38;;;;;;;4.53;86.57;100175.53;5084128;28;20031;-68
2020/12/13 09:44:10;;;;;;;7.28;3.85;;;;;;;4.47;86.44;100167.72;5083635;28;20083;-69
2020/12/13 09:46:35;;;;;;;14.05;6.18;;;;;;;4.44;86.77;100171.09;5082919;28;20048;-71
2020/12/13 09:49:01;;;;;;;13.55;6.75;;;;;;;4.46;87.13;100171.13;5084003;28;20020;-71
2020/12/13 09:51:26;;;;;;;9.52;4.05;;;;;;;4.49;86.95;100172.88;5084040;28;20111;-72
2020/12/13 09:53:55;;;;;;;9.95;5.22;;;;;;;4.47;87.49;100172.88;5084132;28;20036;-72
2020/12/13 09:56:20;;;;;;;17.00;5.65;;;;;;;4.52;87.11;100178.06;5082520;28;20021;-70
2020/12/13 09:58:46;;;;;;;13.27;5.25;;;;;;;4.57;87.09;100177.28;5083218;28;20051;-70
2020/12/13 10:01:13;;;;;;;13.45;6.60;;;;;;;4.59;86.98;100179.88;5083582;28;20029;-72
2020/12/13 10:03:43;;;;;;;13.98;6.07;;;;;;;4.64;86.88;100174.78;5083647;28;20509;-73
2020/12/13 10:11:26;;;;;;;12.45;5.93;;;;;;;4.66;87.15;100175.66;5083706;28;20063;-73
2020/12/13 10:13:51;;;;;;;8.27;4.47;;;;;;;4.79;86.96;100186.97;5082993;28;20599;-73
2020/12/13 10:16:17;;;;;;;10.85;6.07;;;;;;;4.78;86.81;100185.22;5083625;28;20027;-74
2020/12/13 10:18:42;;;;;;;10.63;5.15;;;;;;;4.76;86.97;100184.38;5082390;28;20111;-74
2020/12/13 10:21:08;;;;;;;11.30;5.95;;;;;;;4.79;86.68;100187.81;5083646;28;20025;-73
2020/12/13 10:23:33;;;;;;;9.50;4.80;;;;;;;4.83;86.69;100191.28;5083237;28;20036;-73
2020/12/13 10:25:58;;;;;;;10.40;5.18;;;;;;;4.86;86.60;100198.19;5083355;28;20021;-74
2020/12/13 10:28:24;;;;;;;14.75;5.55;;;;;;;4.80;86.26;100187.00;5083281;28;20028;-73
2020/12/13 10:30:50;;;;;;;12.00;4.22;;;;;;;4.76;86.38;100192.06;5083519;28;20032;-74
2020/12/13 10:33:16;;;;;;;8.02;4.43;;;;;;;4.72;86.31;100193.75;5083239;28;20028;-73
2020/12/13 10:35:42;;;;;;;11.30;5.65;;;;;;;4.70;86.28;100191.16;5083425;28;20024;-74
2020/12/13 10:38:07;;;;;;;12.48;6.47;;;;;;;4.68;86.54;100189.41;5081941;28;20029;-75
2020/12/13 10:40:35;;;;;;;12.45;6.00;;;;;;;4.69;86.86;100186.88;5083456;28;20012;-74
2020/12/13 10:43:01;;;;;;;13.13;6.30;;;;;;;4.71;86.89;100187.72;5081802;28;20456;-75
2020/12/13 10:45:26;;;;;;;12.60;6.43;;;;;;;4.78;87.01;100190.38;5083170;28;20044;-74
2020/12/13 10:47:51;;;;;;;12.15;6.20;;;;;;;4.82;86.43;100193.00;5083369;28;20040;-75
2020/12/13 10:50:18;;;;;;;15.25;7.45;;;;;;;4.80;86.64;100193.81;5083339;28;20100;-75
2020/12/13 10:52:43;;;;;;;12.82;6.72;;;;;;;4.81;86.31;100186.13;5083092;28;20027;-75
2020/12/13 10:55:08;;;;;;;11.98;6.10;;;;;;;4.79;86.55;100190.38;5083136;28;20099;-75
2020/12/13 10:57:34;;;;;;;13.07;5.82;;;;;;;4.81;86.14;100191.28;5083169;28;20028;-74
2020/12/13 10:59:59;;;;;;;13.38;6.50;;;;;;;4.78;85.96;100188.66;5082939;28;20021;-76
2020/12/13 11:02:24;;;;;;;13.18;5.70;;;;;;;4.72;86.31;100193.75;5082842;28;20064;-75
2020/12/13 11:04:50;;;;;;;12.73;6.75;;;;;;;4.67;86.19;100185.97;5082827;28;20048;-75
2020/12/13 11:07:15;;;;;;;15.05;7.55;;;;;;;4.66;86.65;100194.53;5082913;28;20078;-76
2020/12/13 11:09:41;;;;;;;13.60;7.90;;;;;;;4.74;86.54;100194.63;5081500;28;20017;-75
2020/12/13 11:12:06;;;;;;;15.35;6.70;;;;;;;4.76;86.34;100200.63;5086398;28;20013;-75
2020/12/13 11:14:32;;;;;;;12.35;6.13;;;;;;;4.75;86.14;100193.78;5086843;28;20027;-75
2020/12/13 11:16:57;;;;;;;12.80;5.32;;;;;;;4.75;86.14;100200.63;5085808;28;20031;-75
2020/12/13 11:19:22;;;;;;;12.57;5.50;;;;;;;4.75;85.91;100209.22;5086925;28;20024;-76
2020/12/13 11:21:48;;;;;;;10.18;5.45;;;;;;;4.70;86.04;100204.00;5086795;28;20021;-75
2020/12/13 11:24:13;;;;;;;9.40;5.45;;;;;;;4.68;86.27;100204.84;5085320;28;20017;-75
2020/12/13 11:26:39;;;;;;;11.60;6.35;;;;;;;4.65;86.21;100205.66;5086632;28;20028;-75
2020/12/13 11:29:04;;;;;;;13.52;5.88;;;;;;;4.64;86.07;100195.34;5084980;28;20028;-75
2020/12/13 11:31:29;;;;;;;9.43;4.72;;;;;;;4.71;86.09;100207.44;5086676;28;20021;-75
2020/12/13 11:33:55;;;;;;;10.65;5.95;;;;;;;4.70;85.79;100201.44;5086314;28;20024;-74
2020/12/13 11:36:20;;;;;;;12.55;5.75;;;;;;;4.56;86.08;100200.41;5086701;28;20020;-74
2020/12/13 11:38:46;;;;;;;12.77;6.97;;;;;;;4.57;86.29;100199.53;5086612;28;20024;-74
2020/12/13 11:41:11;;;;;;;13.13;7.32;;;;;;;4.55;86.58;100206.38;5085225;28;20020;-74
2020/12/13 11:43:36;;;;;;;12.60;6.00;;;;;;;4.59;86.45;100210.72;5086213;28;20020;-73
2020/12/13 11:46:02;;;;;;;10.85;5.78;;;;;;;4.60;86.47;100209.88;5086352;28;20023;-74